Startpagina
METAR-TAF:

METAR-TAF

Vliegvelden :

Aeropuerto Juan Mendoza

Oruro, Bolivia

breedte: 17-58S, lengte: 067-04W, hoogte: 3072 m

Actueel weer

Dit bericht is 4 uur en het 0 minuten geleden gemaakt, om 19:00 UTC
Wind 4 kt uit het zuidzuidoosten
Temperatuur 17°C
Vochtigheid 48%
Druk 1034 hPa
Zicht 10 km of meer
Verspreide wolken op 1700 ft
Gebroken wolken op 20000 ft

METAR: SLOR 191900Z 16004KT 9999 SCT017 BKN200 17/06 Q1034

Tijdstip: 19:00 (23:00 UTC)


TAF: ontbreekt

Waarnemingen en weersverwachtingen van meer dan 4000 vliegvelden (METAR en TAF).

De beschikbare stations zijn de gele en rode punten op de kaart.

Ga met uw muis naar het station om de naam te zien.

Klik dan om waarnemingen en weersverwachtingen te zien.

kaart wijzigen: klik op de groene knoppen met een zwart kruis om in te zoomen, op de groene knop met een streepje om uit te zoomen of op de groene pijlen voor aangrenzende kaarten.


METAR-TAF: